NKS301 KBNA-KFLL
Flight info
| Callsign | NKS301 |
|---|---|
| Flight time | 1h 48m |
| Altitude | 37000 |
| Route | FLAME4 GENDE ACORI TEEKY4 |
| Aircraft | A320/M-SDE3FGHIRWY/LB1 |
Departure
| Time | 2026-05-03 20:21 |
|---|---|
| Airport | Nashville International Airport (KBNA) |
Arrival
| Time | 2026-05-03 22:09 |
|---|---|
| Airport | Fort Lauderdale Hollywood International Airport (KFLL) |
| Time | Latitude | Longitude | Altitude | Speed | Heading |
|---|---|---|---|---|---|
| 2026-05-03 20:15 | 36.13468 | -86.67073 | 575 ft | 0 kts | 197° |
| 2026-05-03 20:16 | 36.13452 | -86.67086 | 575 ft | 5 kts | 223° |
| 2026-05-03 20:16 | 36.13450 | -86.67143 | 577 ft | 10 kts | 281° |
| 2026-05-03 20:16 | 36.13470 | -86.67243 | 576 ft | 13 kts | 285° |
| 2026-05-03 20:16 | 36.13500 | -86.67362 | 575 ft | 16 kts | 284° |
| 2026-05-03 20:17 | 36.13533 | -86.67500 | 578 ft | 18 kts | 287° |
| 2026-05-03 20:17 | 36.13572 | -86.67651 | 576 ft | 16 kts | 288° |
| 2026-05-03 20:17 | 36.13600 | -86.67735 | 576 ft | 8 kts | 314° |
| 2026-05-03 20:17 | 36.13659 | -86.67722 | 580 ft | 10 kts | 18° |
| 2026-05-03 20:18 | 36.13727 | -86.67698 | 575 ft | 7 kts | 356° |
| 2026-05-03 20:18 | 36.13745 | -86.67748 | 577 ft | 0 kts | 287° |
| 2026-05-03 20:19 | 36.13745 | -86.67749 | 577 ft | 1 kts | 287° |
| 2026-05-03 20:19 | 36.13754 | -86.67784 | 578 ft | 9 kts | 287° |
| 2026-05-03 20:19 | 36.13763 | -86.67868 | 577 ft | 10 kts | 234° |
| 2026-05-03 20:20 | 36.13681 | -86.67900 | 575 ft | 20 kts | 198° |
| 2026-05-03 20:20 | 36.13334 | -86.68036 | 575 ft | 85 kts | 197° |
| 2026-05-03 20:20 | 36.12593 | -86.68324 | 577 ft | 135 kts | 197° |
| 2026-05-03 20:20 | 36.11668 | -86.68675 | 1058 ft | 138 kts | 199° |
| 2026-05-03 20:21 | 36.10732 | -86.69012 | 1686 ft | 143 kts | 195° |
| 2026-05-03 20:21 | 36.09755 | -86.69299 | 2259 ft | 146 kts | 197° |
| 2026-05-03 20:21 | 36.08712 | -86.69631 | 2538 ft | 167 kts | 198° |
| 2026-05-03 20:21 | 36.07520 | -86.70066 | 2874 ft | 189 kts | 198° |
| 2026-05-03 20:22 | 36.06178 | -86.70565 | 3143 ft | 214 kts | 199° |
| 2026-05-03 20:22 | 36.04671 | -86.71122 | 3560 ft | 239 kts | 198° |
| 2026-05-03 20:22 | 36.03013 | -86.71729 | 4294 ft | 254 kts | 198° |
| 2026-05-03 20:22 | 36.01297 | -86.72348 | 5234 ft | 260 kts | 198° |
| 2026-05-03 20:23 | 35.99533 | -86.72976 | 6089 ft | 268 kts | 199° |
| 2026-05-03 20:23 | 35.97747 | -86.73610 | 6885 ft | 274 kts | 199° |
| 2026-05-03 20:23 | 35.95890 | -86.74272 | 7685 ft | 280 kts | 199° |
| 2026-05-03 20:23 | 35.93964 | -86.74790 | 8486 ft | 289 kts | 188° |
| 2026-05-03 20:24 | 35.91929 | -86.74942 | 9324 ft | 295 kts | 185° |
| 2026-05-03 20:24 | 35.89858 | -86.75083 | 10155 ft | 301 kts | 185° |
| 2026-05-03 20:24 | 35.87694 | -86.75232 | 10495 ft | 323 kts | 185° |
| 2026-05-03 20:24 | 35.85363 | -86.75398 | 10702 ft | 347 kts | 185° |
| 2026-05-03 20:25 | 35.82904 | -86.75572 | 11191 ft | 358 kts | 185° |
| 2026-05-03 20:25 | 35.80395 | -86.75745 | 11848 ft | 363 kts | 185° |
| 2026-05-03 20:25 | 35.77862 | -86.75921 | 12541 ft | 366 kts | 185° |
| 2026-05-03 20:25 | 35.75307 | -86.76100 | 13231 ft | 369 kts | 186° |
| 2026-05-03 20:26 | 35.72762 | -86.76281 | 13916 ft | 373 kts | 186° |
| 2026-05-03 20:26 | 35.70160 | -86.76467 | 14531 ft | 377 kts | 186° |
| 2026-05-03 20:26 | 35.67534 | -86.76653 | 15124 ft | 380 kts | 186° |
| 2026-05-03 20:26 | 35.64884 | -86.76839 | 15708 ft | 383 kts | 186° |
| 2026-05-03 20:27 | 35.62211 | -86.77023 | 16292 ft | 386 kts | 186° |
| 2026-05-03 20:27 | 35.59519 | -86.77210 | 16866 ft | 389 kts | 186° |
| 2026-05-03 20:27 | 35.56801 | -86.77401 | 17445 ft | 393 kts | 187° |
| 2026-05-03 20:27 | 35.54065 | -86.77594 | 18036 ft | 396 kts | 187° |
| 2026-05-03 20:28 | 35.51303 | -86.77784 | 18597 ft | 399 kts | 187° |
| 2026-05-03 20:28 | 35.48514 | -86.77970 | 19120 ft | 402 kts | 187° |
| 2026-05-03 20:28 | 35.45710 | -86.78156 | 19652 ft | 405 kts | 187° |
| 2026-05-03 20:28 | 35.42885 | -86.78345 | 20194 ft | 407 kts | 187° |
| 2026-05-03 20:29 | 35.40049 | -86.78536 | 20748 ft | 410 kts | 187° |
| 2026-05-03 20:29 | 35.37195 | -86.78728 | 21270 ft | 412 kts | 187° |
| 2026-05-03 20:29 | 35.34325 | -86.78921 | 21758 ft | 414 kts | 187° |
| 2026-05-03 20:29 | 35.31433 | -86.79116 | 22248 ft | 417 kts | 187° |
| 2026-05-03 20:30 | 35.28563 | -86.79307 | 22724 ft | 419 kts | 187° |
| 2026-05-03 20:30 | 35.25637 | -86.79500 | 23208 ft | 422 kts | 187° |
| 2026-05-03 20:30 | 35.22701 | -86.79695 | 23684 ft | 424 kts | 187° |
| 2026-05-03 20:30 | 35.19742 | -86.79897 | 24080 ft | 427 kts | 187° |
| 2026-05-03 20:31 | 35.16766 | -86.80102 | 24458 ft | 429 kts | 187° |
| 2026-05-03 20:31 | 35.13774 | -86.80302 | 24848 ft | 432 kts | 187° |
| 2026-05-03 20:31 | 35.10766 | -86.80501 | 25226 ft | 434 kts | 187° |
| 2026-05-03 20:31 | 35.07738 | -86.80702 | 25596 ft | 436 kts | 187° |
| 2026-05-03 20:32 | 35.04701 | -86.80905 | 25962 ft | 439 kts | 187° |
| 2026-05-03 20:32 | 35.01649 | -86.81108 | 26328 ft | 441 kts | 187° |
| 2026-05-03 20:32 | 34.98576 | -86.81311 | 26708 ft | 443 kts | 187° |
| 2026-05-03 20:32 | 34.95491 | -86.81512 | 27076 ft | 445 kts | 187° |
| 2026-05-03 20:33 | 34.92386 | -86.81716 | 27450 ft | 448 kts | 187° |
| 2026-05-03 20:33 | 34.89268 | -86.81923 | 27824 ft | 450 kts | 187° |
| 2026-05-03 20:33 | 34.86134 | -86.82131 | 28189 ft | 452 kts | 187° |
| 2026-05-03 20:33 | 34.82981 | -86.82306 | 28555 ft | 456 kts | 184° |
| 2026-05-03 20:34 | 34.79797 | -86.82037 | 28897 ft | 463 kts | 175° |
| 2026-05-03 20:34 | 34.76632 | -86.81189 | 29245 ft | 468 kts | 168° |
| 2026-05-03 20:34 | 34.73480 | -86.80145 | 29602 ft | 470 kts | 168° |
| 2026-05-03 20:34 | 34.70320 | -86.79096 | 30061 ft | 470 kts | 168° |
| 2026-05-03 20:35 | 34.67212 | -86.78066 | 30541 ft | 468 kts | 168° |
| 2026-05-03 20:35 | 34.64075 | -86.77026 | 30988 ft | 467 kts | 168° |
| 2026-05-03 20:35 | 34.60942 | -86.75990 | 31435 ft | 465 kts | 168° |
| 2026-05-03 20:35 | 34.57820 | -86.74963 | 31887 ft | 464 kts | 168° |
| 2026-05-03 20:36 | 34.54704 | -86.73944 | 32338 ft | 463 kts | 168° |
| 2026-05-03 20:36 | 34.51601 | -86.72929 | 32798 ft | 461 kts | 168° |
| 2026-05-03 20:36 | 34.48508 | -86.71917 | 33249 ft | 460 kts | 168° |
| 2026-05-03 20:36 | 34.45420 | -86.70903 | 33700 ft | 459 kts | 168° |
| 2026-05-03 20:37 | 34.42345 | -86.69890 | 34148 ft | 458 kts | 168° |
| 2026-05-03 20:37 | 34.39271 | -86.68882 | 34558 ft | 456 kts | 169° |
| 2026-05-03 20:37 | 34.36209 | -86.67882 | 34947 ft | 455 kts | 169° |
| 2026-05-03 20:37 | 34.33162 | -86.66886 | 35341 ft | 453 kts | 169° |
| 2026-05-03 20:38 | 34.30116 | -86.65892 | 35711 ft | 452 kts | 169° |
| 2026-05-03 20:38 | 34.27084 | -86.64905 | 36070 ft | 451 kts | 170° |
| 2026-05-03 20:38 | 34.24060 | -86.63923 | 36426 ft | 449 kts | 170° |
| 2026-05-03 20:38 | 34.21043 | -86.62942 | 36771 ft | 448 kts | 171° |
| 2026-05-03 20:39 | 34.18038 | -86.61964 | 37088 ft | 448 kts | 171° |
| 2026-05-03 20:39 | 34.12009 | -86.60001 | 37192 ft | 450 kts | 171° |
| 2026-05-03 20:40 | 34.05963 | -86.58035 | 37194 ft | 450 kts | 171° |
| 2026-05-03 20:40 | 33.99917 | -86.56072 | 37192 ft | 450 kts | 171° |
| 2026-05-03 20:41 | 33.93917 | -86.54135 | 37193 ft | 449 kts | 171° |
| 2026-05-03 20:41 | 33.87880 | -86.52184 | 37194 ft | 449 kts | 171° |
| 2026-05-03 20:42 | 33.81849 | -86.50238 | 37197 ft | 449 kts | 171° |
| 2026-05-03 20:42 | 33.75824 | -86.48296 | 37192 ft | 448 kts | 172° |
| 2026-05-03 20:43 | 33.69797 | -86.46354 | 37193 ft | 448 kts | 172° |
| 2026-05-03 20:43 | 33.63770 | -86.44416 | 37190 ft | 448 kts | 172° |
| 2026-05-03 20:44 | 33.57751 | -86.42489 | 37186 ft | 447 kts | 172° |
| 2026-05-03 20:44 | 33.51739 | -86.40560 | 37180 ft | 447 kts | 172° |
| 2026-05-03 20:45 | 33.45765 | -86.38643 | 37184 ft | 447 kts | 172° |
| 2026-05-03 20:45 | 33.39767 | -86.36728 | 37189 ft | 446 kts | 172° |
| 2026-05-03 20:46 | 33.33765 | -86.34818 | 37191 ft | 446 kts | 172° |
| 2026-05-03 20:46 | 33.27778 | -86.32903 | 37192 ft | 445 kts | 172° |
| 2026-05-03 20:47 | 33.21792 | -86.30993 | 37200 ft | 444 kts | 173° |
| 2026-05-03 20:47 | 33.15813 | -86.29097 | 37197 ft | 444 kts | 173° |
| 2026-05-03 20:48 | 33.09887 | -86.27219 | 37196 ft | 444 kts | 173° |
| 2026-05-03 20:48 | 33.03922 | -86.25331 | 37194 ft | 443 kts | 173° |
| 2026-05-03 20:49 | 32.97968 | -86.23444 | 37187 ft | 443 kts | 173° |
| 2026-05-03 20:49 | 32.92014 | -86.21563 | 37171 ft | 442 kts | 173° |
| 2026-05-03 20:50 | 32.86065 | -86.19685 | 37168 ft | 442 kts | 173° |
| 2026-05-03 20:50 | 32.80129 | -86.17809 | 37167 ft | 441 kts | 173° |
| 2026-05-03 20:51 | 32.74189 | -86.15934 | 37168 ft | 441 kts | 173° |
| 2026-05-03 20:51 | 32.69257 | -86.14388 | 37167 ft | 440 kts | 174° |
| 2026-05-03 20:52 | 32.63324 | -86.12534 | 37164 ft | 440 kts | 174° |
| 2026-05-03 20:52 | 32.56436 | -86.10381 | 37160 ft | 440 kts | 174° |
| 2026-05-03 20:53 | 32.51479 | -86.08825 | 37159 ft | 440 kts | 174° |
| 2026-05-03 20:53 | 32.45562 | -86.06971 | 37159 ft | 440 kts | 174° |
| 2026-05-03 20:54 | 32.39641 | -86.05123 | 37159 ft | 440 kts | 174° |
| 2026-05-03 20:54 | 32.30765 | -86.02365 | 37159 ft | 439 kts | 174° |
| 2026-05-03 20:55 | 32.24895 | -86.00530 | 37165 ft | 439 kts | 174° |
| 2026-05-03 20:55 | 32.18990 | -85.98689 | 37168 ft | 439 kts | 174° |
| 2026-05-03 20:56 | 32.13088 | -85.96861 | 37173 ft | 438 kts | 175° |
| 2026-05-03 20:56 | 32.07189 | -85.95032 | 37181 ft | 438 kts | 175° |
| 2026-05-03 20:57 | 32.01297 | -85.93215 | 37183 ft | 437 kts | 175° |
| 2026-05-03 20:57 | 31.95409 | -85.91399 | 37183 ft | 437 kts | 175° |
| 2026-05-03 20:58 | 31.89564 | -85.89591 | 37183 ft | 437 kts | 175° |
| 2026-05-03 20:58 | 31.83689 | -85.87778 | 37183 ft | 436 kts | 175° |
| 2026-05-03 20:59 | 31.77966 | -85.85213 | 37158 ft | 457 kts | 159° |
| 2026-05-03 20:59 | 31.75341 | -85.83015 | 37157 ft | 471 kts | 148° |
| 2026-05-03 20:59 | 31.73010 | -85.80236 | 37150 ft | 481 kts | 141° |
| 2026-05-03 21:00 | 31.69296 | -85.75369 | 37147 ft | 481 kts | 141° |
| 2026-05-03 21:00 | 31.64045 | -85.68553 | 37137 ft | 481 kts | 142° |
| 2026-05-03 21:01 | 31.59549 | -85.62733 | 37132 ft | 482 kts | 142° |
| 2026-05-03 21:01 | 31.55052 | -85.56914 | 37124 ft | 482 kts | 142° |
| 2026-05-03 21:02 | 31.50579 | -85.51131 | 37114 ft | 482 kts | 142° |
| 2026-05-03 21:02 | 31.46072 | -85.45310 | 37141 ft | 482 kts | 142° |
| 2026-05-03 21:03 | 31.41568 | -85.39498 | 37150 ft | 482 kts | 142° |
| 2026-05-03 21:03 | 31.37053 | -85.33692 | 37149 ft | 482 kts | 142° |
| 2026-05-03 21:04 | 31.32539 | -85.27893 | 37149 ft | 482 kts | 143° |
| 2026-05-03 21:04 | 31.28018 | -85.22096 | 37151 ft | 482 kts | 143° |
| 2026-05-03 21:05 | 31.23504 | -85.16316 | 37148 ft | 481 kts | 143° |
| 2026-05-03 21:05 | 31.19012 | -85.10576 | 37153 ft | 481 kts | 143° |
| 2026-05-03 21:06 | 31.14495 | -85.04799 | 37155 ft | 481 kts | 143° |
| 2026-05-03 21:06 | 31.09978 | -84.99032 | 37144 ft | 481 kts | 143° |
| 2026-05-03 21:07 | 31.05453 | -84.93274 | 37142 ft | 481 kts | 143° |
| 2026-05-03 21:07 | 31.00932 | -84.87528 | 37139 ft | 481 kts | 143° |
| 2026-05-03 21:08 | 30.96408 | -84.81791 | 37137 ft | 481 kts | 143° |
| 2026-05-03 21:08 | 30.91880 | -84.76053 | 37132 ft | 481 kts | 143° |
| 2026-05-03 21:09 | 30.87348 | -84.70316 | 37138 ft | 481 kts | 144° |
| 2026-05-03 21:09 | 30.82810 | -84.64588 | 37140 ft | 481 kts | 144° |
| 2026-05-03 21:10 | 30.78269 | -84.58860 | 37141 ft | 482 kts | 144° |
| 2026-05-03 21:10 | 30.73729 | -84.53131 | 37138 ft | 482 kts | 144° |
| 2026-05-03 21:11 | 30.69176 | -84.47412 | 37134 ft | 481 kts | 144° |
| 2026-05-03 21:11 | 30.64628 | -84.41697 | 37130 ft | 482 kts | 144° |
| 2026-05-03 21:12 | 30.60080 | -84.35984 | 37129 ft | 482 kts | 144° |
| 2026-05-03 21:12 | 30.55552 | -84.30312 | 37131 ft | 482 kts | 144° |
| 2026-05-03 21:13 | 30.50991 | -84.24615 | 37131 ft | 482 kts | 144° |
| 2026-05-03 21:13 | 30.46426 | -84.18929 | 37133 ft | 481 kts | 145° |
| 2026-05-03 21:14 | 30.41863 | -84.13245 | 37131 ft | 481 kts | 144° |
| 2026-05-03 21:14 | 30.37166 | -84.07828 | 37130 ft | 465 kts | 155° |
| 2026-05-03 21:15 | 30.34544 | -84.05726 | 37128 ft | 451 kts | 163° |
| 2026-05-03 21:15 | 30.31835 | -84.03935 | 37122 ft | 448 kts | 163° |
| 2026-05-03 21:15 | 30.26414 | -84.00367 | 37113 ft | 448 kts | 163° |
| 2026-05-03 21:16 | 30.20996 | -83.96774 | 37119 ft | 449 kts | 163° |
| 2026-05-03 21:16 | 30.15581 | -83.93173 | 36836 ft | 447 kts | 163° |
| 2026-05-03 21:17 | 30.12914 | -83.91402 | 36229 ft | 448 kts | 163° |
| 2026-05-03 21:17 | 30.11086 | -83.90190 | 35896 ft | 448 kts | 162° |
| 2026-05-03 21:17 | 30.07490 | -83.87813 | 35291 ft | 450 kts | 162° |
| 2026-05-03 21:17 | 30.04766 | -83.86017 | 35103 ft | 452 kts | 162° |
| 2026-05-03 21:18 | 29.99293 | -83.82420 | 35109 ft | 454 kts | 162° |
| 2026-05-03 21:18 | 29.93798 | -83.78800 | 35111 ft | 455 kts | 162° |
| 2026-05-03 21:19 | 29.88305 | -83.75179 | 35114 ft | 455 kts | 162° |
| 2026-05-03 21:19 | 29.82812 | -83.71567 | 35108 ft | 455 kts | 162° |
| 2026-05-03 21:20 | 29.77310 | -83.67966 | 35099 ft | 455 kts | 162° |
| 2026-05-03 21:20 | 29.71803 | -83.64361 | 35095 ft | 455 kts | 163° |
| 2026-05-03 21:21 | 29.66292 | -83.60750 | 35088 ft | 456 kts | 162° |
| 2026-05-03 21:21 | 29.60782 | -83.57135 | 35088 ft | 456 kts | 163° |
| 2026-05-03 21:22 | 29.55269 | -83.53529 | 35085 ft | 456 kts | 163° |
| 2026-05-03 21:22 | 29.49781 | -83.49962 | 35087 ft | 456 kts | 163° |
| 2026-05-03 21:23 | 29.44247 | -83.46365 | 35085 ft | 456 kts | 163° |
| 2026-05-03 21:23 | 29.38723 | -83.42771 | 35084 ft | 456 kts | 163° |
| 2026-05-03 21:24 | 29.33196 | -83.39180 | 35089 ft | 457 kts | 163° |
| 2026-05-03 21:24 | 29.27669 | -83.35594 | 35082 ft | 456 kts | 163° |
| 2026-05-03 21:25 | 29.22147 | -83.32004 | 35080 ft | 457 kts | 163° |
| 2026-05-03 21:25 | 29.16630 | -83.28374 | 35089 ft | 457 kts | 163° |
| 2026-05-03 21:26 | 29.11116 | -83.24737 | 35087 ft | 457 kts | 163° |
| 2026-05-03 21:26 | 29.05608 | -83.21111 | 35084 ft | 457 kts | 163° |
| 2026-05-03 21:27 | 29.00097 | -83.17491 | 35081 ft | 456 kts | 163° |
| 2026-05-03 21:27 | 28.94588 | -83.13894 | 35079 ft | 456 kts | 163° |
| 2026-05-03 21:28 | 28.89114 | -83.10331 | 35078 ft | 456 kts | 163° |
| 2026-05-03 21:28 | 28.83605 | -83.06738 | 35079 ft | 456 kts | 163° |
| 2026-05-03 21:29 | 28.78101 | -83.03147 | 35078 ft | 456 kts | 163° |
| 2026-05-03 21:29 | 28.72594 | -82.99561 | 35076 ft | 455 kts | 163° |
| 2026-05-03 21:30 | 28.67088 | -82.95987 | 35073 ft | 455 kts | 163° |
| 2026-05-03 21:30 | 28.61585 | -82.92410 | 35073 ft | 456 kts | 163° |
| 2026-05-03 21:31 | 28.56079 | -82.88831 | 35071 ft | 456 kts | 163° |
| 2026-05-03 21:31 | 28.50571 | -82.85256 | 35069 ft | 456 kts | 163° |
| 2026-05-03 21:32 | 28.45057 | -82.81693 | 35067 ft | 455 kts | 164° |
| 2026-05-03 21:32 | 28.39547 | -82.78141 | 35068 ft | 456 kts | 163° |
| 2026-05-03 21:33 | 28.34435 | -82.74823 | 35057 ft | 456 kts | 163° |
| 2026-05-03 21:33 | 28.28921 | -82.71268 | 35056 ft | 456 kts | 164° |
| 2026-05-03 21:34 | 28.23389 | -82.67726 | 35050 ft | 456 kts | 164° |
| 2026-05-03 21:34 | 28.17863 | -82.64176 | 35054 ft | 457 kts | 163° |
| 2026-05-03 21:35 | 28.12335 | -82.60620 | 35050 ft | 457 kts | 163° |
| 2026-05-03 21:35 | 28.06796 | -82.57072 | 35047 ft | 457 kts | 163° |
| 2026-05-03 21:36 | 28.01259 | -82.53537 | 35044 ft | 454 kts | 166° |
| 2026-05-03 21:36 | 27.98414 | -82.52123 | 35044 ft | 439 kts | 174° |
| 2026-05-03 21:36 | 27.95569 | -82.51092 | 35046 ft | 435 kts | 175° |
| 2026-05-03 21:37 | 27.89789 | -82.49045 | 35026 ft | 436 kts | 175° |
| 2026-05-03 21:37 | 27.84003 | -82.47002 | 35028 ft | 436 kts | 175° |
| 2026-05-03 21:38 | 27.78208 | -82.44947 | 35027 ft | 436 kts | 175° |
| 2026-05-03 21:38 | 27.72406 | -82.42897 | 35031 ft | 437 kts | 175° |
| 2026-05-03 21:39 | 27.67581 | -82.41196 | 35033 ft | 437 kts | 175° |
| 2026-05-03 21:39 | 27.61772 | -82.39142 | 35042 ft | 437 kts | 175° |
| 2026-05-03 21:40 | 27.55962 | -82.37087 | 35053 ft | 438 kts | 175° |
| 2026-05-03 21:40 | 27.50142 | -82.35032 | 35050 ft | 438 kts | 175° |
| 2026-05-03 21:41 | 27.44325 | -82.32982 | 35045 ft | 438 kts | 175° |
| 2026-05-03 21:41 | 27.38501 | -82.30895 | 35040 ft | 445 kts | 171° |
| 2026-05-03 21:42 | 27.35699 | -82.29391 | 35038 ft | 460 kts | 162° |
| 2026-05-03 21:42 | 27.32920 | -82.27610 | 35040 ft | 460 kts | 163° |
| 2026-05-03 21:42 | 27.27348 | -82.24061 | 35036 ft | 460 kts | 163° |
| 2026-05-03 21:43 | 27.21764 | -82.20527 | 35041 ft | 461 kts | 163° |
| 2026-05-03 21:43 | 27.16177 | -82.16989 | 35038 ft | 461 kts | 163° |
| 2026-05-03 21:44 | 27.10589 | -82.13444 | 35048 ft | 461 kts | 162° |
| 2026-05-03 21:44 | 27.07794 | -82.11673 | 34864 ft | 462 kts | 162° |
| 2026-05-03 21:44 | 27.04983 | -82.09900 | 34073 ft | 467 kts | 162° |
| 2026-05-03 21:45 | 27.02126 | -82.08108 | 33051 ft | 473 kts | 161° |
| 2026-05-03 21:45 | 26.99239 | -82.06293 | 32091 ft | 479 kts | 160° |
| 2026-05-03 21:45 | 26.96412 | -82.04220 | 31119 ft | 494 kts | 150° |
| 2026-05-03 21:45 | 26.93841 | -82.01587 | 30432 ft | 503 kts | 140° |
| 2026-05-03 21:46 | 26.91472 | -81.98726 | 29804 ft | 499 kts | 140° |
| 2026-05-03 21:46 | 26.89109 | -81.95912 | 29180 ft | 493 kts | 140° |
| 2026-05-03 21:46 | 26.86760 | -81.93146 | 28575 ft | 487 kts | 141° |
| 2026-05-03 21:46 | 26.84467 | -81.90457 | 27973 ft | 481 kts | 141° |
| 2026-05-03 21:47 | 26.82138 | -81.87726 | 27377 ft | 476 kts | 141° |
| 2026-05-03 21:47 | 26.79864 | -81.85059 | 26790 ft | 471 kts | 141° |
| 2026-05-03 21:47 | 26.77645 | -81.82452 | 26384 ft | 462 kts | 141° |
| 2026-05-03 21:47 | 26.75463 | -81.79879 | 26138 ft | 450 kts | 141° |
| 2026-05-03 21:48 | 26.73317 | -81.77366 | 25698 ft | 444 kts | 141° |
| 2026-05-03 21:48 | 26.71179 | -81.74882 | 25177 ft | 441 kts | 141° |
| 2026-05-03 21:48 | 26.69056 | -81.72425 | 24683 ft | 437 kts | 141° |
| 2026-05-03 21:48 | 26.66962 | -81.69999 | 23993 ft | 429 kts | 141° |
| 2026-05-03 21:49 | 26.64906 | -81.67613 | 23483 ft | 424 kts | 141° |
| 2026-05-03 21:49 | 26.62905 | -81.65200 | 22962 ft | 425 kts | 136° |
| 2026-05-03 21:49 | 26.61107 | -81.62566 | 22435 ft | 424 kts | 134° |
| 2026-05-03 21:49 | 26.59343 | -81.59942 | 21906 ft | 421 kts | 133° |
| 2026-05-03 21:50 | 26.57610 | -81.57364 | 21401 ft | 420 kts | 133° |
| 2026-05-03 21:50 | 26.55859 | -81.54762 | 20874 ft | 418 kts | 133° |
| 2026-05-03 21:50 | 26.54118 | -81.52175 | 20363 ft | 416 kts | 133° |
| 2026-05-03 21:50 | 26.52384 | -81.49599 | 19848 ft | 414 kts | 133° |
| 2026-05-03 21:51 | 26.50665 | -81.47048 | 19507 ft | 405 kts | 133° |
| 2026-05-03 21:51 | 26.49031 | -81.44606 | 19376 ft | 380 kts | 133° |
| 2026-05-03 21:51 | 26.47486 | -81.42293 | 18996 ft | 366 kts | 133° |
| 2026-05-03 21:51 | 26.45972 | -81.40045 | 18447 ft | 360 kts | 133° |
| 2026-05-03 21:52 | 26.44471 | -81.37836 | 17796 ft | 355 kts | 133° |
| 2026-05-03 21:52 | 26.42985 | -81.35651 | 17147 ft | 351 kts | 133° |
| 2026-05-03 21:52 | 26.41495 | -81.33510 | 16655 ft | 347 kts | 135° |
| 2026-05-03 21:52 | 26.39974 | -81.31422 | 16408 ft | 346 kts | 135° |
| 2026-05-03 21:53 | 26.38437 | -81.29359 | 16154 ft | 345 kts | 136° |
| 2026-05-03 21:53 | 26.36900 | -81.27312 | 15918 ft | 344 kts | 136° |
| 2026-05-03 21:53 | 26.35366 | -81.25270 | 15680 ft | 342 kts | 135° |
| 2026-05-03 21:53 | 26.33838 | -81.23231 | 15284 ft | 345 kts | 135° |
| 2026-05-03 21:54 | 26.32294 | -81.21167 | 14905 ft | 345 kts | 135° |
| 2026-05-03 21:54 | 26.30783 | -81.19132 | 14634 ft | 336 kts | 135° |
| 2026-05-03 21:54 | 26.29300 | -81.17131 | 14123 ft | 333 kts | 135° |
| 2026-05-03 21:54 | 26.27832 | -81.15160 | 13514 ft | 329 kts | 135° |
| 2026-05-03 21:55 | 26.26385 | -81.13243 | 12913 ft | 326 kts | 135° |
| 2026-05-03 21:55 | 26.24924 | -81.11324 | 12317 ft | 323 kts | 135° |
| 2026-05-03 21:55 | 26.23472 | -81.09426 | 11846 ft | 321 kts | 135° |
| 2026-05-03 21:55 | 26.22009 | -81.07530 | 11406 ft | 324 kts | 135° |
| 2026-05-03 21:56 | 26.20543 | -81.05620 | 10982 ft | 322 kts | 134° |
| 2026-05-03 21:56 | 26.19122 | -81.03747 | 10658 ft | 311 kts | 134° |
| 2026-05-03 21:56 | 26.17723 | -81.01900 | 10540 ft | 314 kts | 134° |
| 2026-05-03 21:56 | 26.16314 | -81.00043 | 10392 ft | 313 kts | 133° |
| 2026-05-03 21:57 | 26.15102 | -80.98023 | 10256 ft | 316 kts | 119° |
| 2026-05-03 21:57 | 26.14325 | -80.95722 | 9894 ft | 322 kts | 105° |
| 2026-05-03 21:57 | 26.13921 | -80.93280 | 9463 ft | 316 kts | 101° |
| 2026-05-03 21:57 | 26.13540 | -80.90889 | 9012 ft | 312 kts | 102° |
| 2026-05-03 21:58 | 26.13154 | -80.88527 | 8599 ft | 309 kts | 102° |
| 2026-05-03 21:58 | 26.12766 | -80.86187 | 8192 ft | 306 kts | 102° |
| 2026-05-03 21:58 | 26.12378 | -80.83868 | 7796 ft | 303 kts | 102° |
| 2026-05-03 21:58 | 26.11994 | -80.81574 | 7400 ft | 300 kts | 102° |
| 2026-05-03 21:59 | 26.11609 | -80.79280 | 6992 ft | 303 kts | 102° |
| 2026-05-03 21:59 | 26.11224 | -80.76998 | 6793 ft | 297 kts | 102° |
| 2026-05-03 21:59 | 26.10855 | -80.74804 | 6681 ft | 287 kts | 102° |
| 2026-05-03 21:59 | 26.10494 | -80.72652 | 6563 ft | 279 kts | 102° |
| 2026-05-03 22:00 | 26.10148 | -80.70571 | 6443 ft | 271 kts | 102° |
| 2026-05-03 22:00 | 26.09809 | -80.68538 | 6317 ft | 262 kts | 102° |
| 2026-05-03 22:00 | 26.09479 | -80.66584 | 6193 ft | 253 kts | 103° |
| 2026-05-03 22:00 | 26.09157 | -80.64689 | 6014 ft | 247 kts | 103° |
| 2026-05-03 22:01 | 26.08838 | -80.62814 | 5878 ft | 246 kts | 102° |
| 2026-05-03 22:01 | 26.08520 | -80.60942 | 5742 ft | 246 kts | 102° |
| 2026-05-03 22:01 | 26.08206 | -80.59079 | 5608 ft | 245 kts | 102° |
| 2026-05-03 22:01 | 26.07891 | -80.57217 | 5481 ft | 244 kts | 102° |
| 2026-05-03 22:02 | 26.07578 | -80.55364 | 5350 ft | 243 kts | 102° |
| 2026-05-03 22:02 | 26.07265 | -80.53515 | 5224 ft | 243 kts | 102° |
| 2026-05-03 22:02 | 26.06912 | -80.51683 | 5108 ft | 242 kts | 102° |
| 2026-05-03 22:02 | 26.06743 | -80.49842 | 5004 ft | 243 kts | 93° |
| 2026-05-03 22:03 | 26.06725 | -80.47969 | 5000 ft | 243 kts | 91° |
| 2026-05-03 22:03 | 26.06726 | -80.46091 | 5001 ft | 243 kts | 91° |
| 2026-05-03 22:03 | 26.06722 | -80.44207 | 4828 ft | 243 kts | 91° |
| 2026-05-03 22:03 | 26.06715 | -80.42333 | 4536 ft | 242 kts | 91° |
| 2026-05-03 22:04 | 26.06707 | -80.40465 | 4215 ft | 241 kts | 90° |
| 2026-05-03 22:04 | 26.06700 | -80.38602 | 3914 ft | 242 kts | 90° |
| 2026-05-03 22:04 | 26.06692 | -80.36696 | 3579 ft | 249 kts | 91° |
| 2026-05-03 22:04 | 26.06684 | -80.34789 | 3256 ft | 242 kts | 90° |
| 2026-05-03 22:05 | 26.06675 | -80.32970 | 2949 ft | 226 kts | 90° |
| 2026-05-03 22:05 | 26.06667 | -80.31292 | 2672 ft | 209 kts | 90° |
| 2026-05-03 22:05 | 26.06660 | -80.29744 | 2433 ft | 198 kts | 89° |
| 2026-05-03 22:05 | 26.06653 | -80.28227 | 2166 ft | 194 kts | 89° |
| 2026-05-03 22:06 | 26.06646 | -80.26740 | 1914 ft | 191 kts | 89° |
| 2026-05-03 22:06 | 26.06639 | -80.25311 | 1662 ft | 177 kts | 90° |
| 2026-05-03 22:06 | 26.06632 | -80.23999 | 1444 ft | 164 kts | 88° |
| 2026-05-03 22:06 | 26.06625 | -80.22779 | 1251 ft | 151 kts | 89° |
| 2026-05-03 22:07 | 26.06619 | -80.21643 | 1054 ft | 145 kts | 88° |
| 2026-05-03 22:07 | 26.06614 | -80.20559 | 873 ft | 141 kts | 87° |
| 2026-05-03 22:07 | 26.06600 | -80.19508 | 661 ft | 138 kts | 88° |
| 2026-05-03 22:07 | 26.06594 | -80.18420 | 482 ft | 141 kts | 87° |
| 2026-05-03 22:08 | 26.06601 | -80.17336 | 311 ft | 139 kts | 87° |
| 2026-05-03 22:08 | 26.06592 | -80.16270 | 150 ft | 139 kts | 87° |
| 2026-05-03 22:08 | 26.06585 | -80.15211 | 28 ft | 128 kts | 87° |
| 2026-05-03 22:08 | 26.06583 | -80.14441 | 45 ft | 67 kts | 91° |
| 2026-05-03 22:09 | 26.06580 | -80.13962 | 75 ft | 51 kts | 89° |
| 2026-05-03 22:09 | 26.06668 | -80.13733 | 68 ft | 27 kts | 41° |
| 2026-05-03 22:09 | 26.06737 | -80.13730 | 70 ft | 14 kts | 288° |
| 2026-05-03 22:10 | 26.06732 | -80.14015 | 74 ft | 17 kts | 249° |
| 2026-05-03 22:10 | 26.06680 | -80.14145 | 59 ft | 21 kts | 256° |
| 2026-05-03 22:10 | 26.06677 | -80.14306 | 49 ft | 19 kts | 270° |
| 2026-05-03 22:10 | 26.06676 | -80.14463 | 44 ft | 23 kts | 269° |
| 2026-05-03 22:11 | 26.06676 | -80.14649 | 34 ft | 25 kts | 269° |
| 2026-05-03 22:11 | 26.06677 | -80.14810 | 22 ft | 14 kts | 272° |
| 2026-05-03 22:11 | 26.06681 | -80.14850 | 20 ft | 0 kts | 280° |
| 2026-05-03 22:13 | 26.06686 | -80.14879 | 20 ft | 10 kts | 280° |
| 2026-05-03 22:14 | 26.06695 | -80.14982 | 19 ft | 15 kts | 271° |
| 2026-05-03 22:14 | 26.06697 | -80.15102 | 20 ft | 10 kts | 284° |
| 2026-05-03 22:14 | 26.06772 | -80.15132 | 18 ft | 16 kts | 360° |
| 2026-05-03 22:14 | 26.06883 | -80.15129 | 16 ft | 12 kts | 10° |
| 2026-05-03 22:15 | 26.06911 | -80.15041 | 16 ft | 15 kts | 90° |
| 2026-05-03 22:15 | 26.06912 | -80.14914 | 16 ft | 18 kts | 89° |
| 2026-05-03 22:15 | 26.06928 | -80.14791 | 16 ft | 14 kts | 51° |
| 2026-05-03 22:15 | 26.06941 | -80.14715 | 17 ft | 12 kts | 131° |
| 2026-05-03 22:16 | 26.06865 | -80.14639 | 17 ft | 17 kts | 140° |
| 2026-05-03 22:16 | 26.06819 | -80.14536 | 16 ft | 16 kts | 92° |
| 2026-05-03 22:16 | 26.06819 | -80.14448 | 16 ft | 11 kts | 90° |
| 2026-05-03 22:16 | 26.06826 | -80.14386 | 16 ft | 6 kts | 49° |
| 2026-05-03 22:17 | 26.06867 | -80.14385 | 16 ft | 7 kts | 360° |
| 2026-05-03 22:17 | 26.06885 | -80.14385 | 16 ft | 0 kts | 1° |
| 2026-05-03 22:19 | 26.06886 | -80.14434 | 16 ft | 0 kts | 1° |